Time;durP1;ratioP1;P1;durP2;ratioP2;P2;SDS_P1;SDS_P2;PMS_P1;PMS_P2;Temp;Humidity;BMP_temperature;BMP_pressure;BME280_temperature;BME280_humidity;BME280_pressure;Samples;Min_cycle;Max_cycle;Signal;HPM_P1;HPM_P2
2022/06/26 00:01:27;;;;;;;0.88;0.85;;;26.90;90.60;;;;;;5059678;28;20049;-61
2022/06/26 00:03:58;;;;;;;0.65;0.65;;;26.90;90.60;;;;;;5060200;28;20052;-62
2022/06/26 00:06:25;;;;;;;14.00;1.85;;;26.90;90.60;;;;;;5052549;28;20071;-63
2022/06/26 00:08:53;;;;;;;0.57;0.57;;;26.90;90.60;;;;;;5047374;28;20040;-63
2022/06/26 00:11:20;;;;;;;0.75;0.57;;;26.90;90.80;;;;;;5053959;28;20044;-63
2022/06/26 00:13:49;;;;;;;0.50;0.50;;;26.90;90.80;;;;;;5058104;28;20472;-63
2022/06/26 00:16:16;;;;;;;0.25;0.25;;;26.90;90.90;;;;;;5051625;28;20049;-63
2022/06/26 00:18:44;;;;;;;0.60;0.60;;;26.90;90.90;;;;;;5063862;28;20492;-62
2022/06/26 00:21:11;;;;;;;0.45;0.45;;;26.90;91.00;;;;;;5048474;28;20060;-63
2022/06/26 00:23:39;;;;;;;3.97;1.67;;;26.90;91.00;;;;;;5047773;28;20052;-63
2022/06/26 00:26:06;;;;;;;1.80;1.23;;;26.90;91.10;;;;;;5046522;28;20045;-63
2022/06/26 00:28:34;;;;;;;0.45;0.45;;;26.90;91.30;;;;;;5050047;28;20544;-63
2022/06/26 00:31:01;;;;;;;2.33;1.15;;;26.90;91.50;;;;;;5046670;28;20428;-63
2022/06/26 00:33:29;;;;;;;;;;;26.90;91.50;;;;;;5043493;28;20539;-63
2022/06/26 00:35:56;;;;;;;1.13;0.88;;;26.90;91.70;;;;;;5045757;28;19932;-63
2022/06/26 00:38:23;;;;;;;1.30;0.93;;;26.90;91.70;;;;;;5048144;28;20116;-63
2022/06/26 00:40:51;;;;;;;0.40;0.40;;;26.90;91.80;;;;;;5057694;28;20052;-64
2022/06/26 00:43:18;;;;;;;0.52;0.52;;;26.80;91.90;;;;;;5050286;28;20049;-62
2022/06/26 00:45:45;;;;;;;0.70;0.70;;;26.80;91.80;;;;;;5051876;28;20424;-64
2022/06/26 00:48:13;;;;;;;0.30;0.30;;;26.90;91.70;;;;;;5058677;28;20060;-63
2022/06/26 00:50:40;;;;;;;0.20;0.20;;;26.80;91.60;;;;;;5050483;28;20056;-63
2022/06/26 00:53:07;;;;;;;1.38;0.50;;;26.90;91.50;;;;;;5050176;28;20045;-63
2022/06/26 00:55:36;;;;;;;0.20;0.20;;;26.90;91.50;;;;;;5048538;28;20052;-62
2022/06/26 00:58:03;;;;;;;1.45;0.75;;;26.80;91.40;;;;;;5051175;28;20048;-63
2022/06/26 01:00:31;;;;;;;0.20;0.20;;;26.90;91.80;;;;;;5053816;28;20060;-64
2022/06/26 01:02:58;;;;;;;;;;;26.80;91.50;;;;;;5055495;28;20504;-63
2022/06/26 01:05:25;;;;;;;0.90;0.90;;;26.80;91.60;;;;;;5050783;28;19932;-63
2022/06/26 01:07:53;;;;;;;0.38;0.38;;;26.80;91.60;;;;;;5051347;28;20044;-63
2022/06/26 01:10:21;;;;;;;1.02;0.50;;;26.80;91.70;;;;;;5059436;28;20059;-63
2022/06/26 01:12:49;;;;;;;0.50;0.50;;;26.80;91.80;;;;;;5063611;28;20053;-63
2022/06/26 01:15:18;;;;;;;0.95;0.68;;;26.80;91.80;;;;;;5049911;28;20084;-62
2022/06/26 01:17:47;;;;;;;0.22;0.22;;;26.80;92.00;;;;;;5060084;28;20042;-63
2022/06/26 01:20:15;;;;;;;0.40;0.40;;;26.80;92.00;;;;;;5055802;28;20409;-63
2022/06/26 01:22:42;;;;;;;1.02;1.02;;;26.80;92.20;;;;;;5049442;28;20037;-66
2022/06/26 01:25:09;;;;;;;0.90;0.82;;;26.80;92.20;;;;;;5051826;28;20362;-63
2022/06/26 01:27:42;;;;;;;0.65;0.65;;;26.80;92.40;;;;;;5064238;28;20053;-62
2022/06/26 01:30:10;;;;;;;0.38;0.38;;;26.80;92.40;;;;;;5049066;28;20076;-62
2022/06/26 01:32:38;;;;;;;0.70;0.70;;;26.80;92.40;;;;;;5063079;28;20075;-63
2022/06/26 01:35:06;;;;;;;0.60;0.60;;;26.80;92.60;;;;;;5057882;28;20388;-63
2022/06/26 01:37:34;;;;;;;1.55;0.47;;;26.80;92.60;;;;;;5056863;28;20060;-63
2022/06/26 01:40:02;;;;;;;1.17;0.98;;;26.80;92.70;;;;;;5050476;28;20048;-63
2022/06/26 01:42:30;;;;;;;;;;;26.80;92.70;;;;;;5069231;28;20056;-62
2022/06/26 01:44:57;;;;;;;;;;;26.80;92.60;;;;;;5059065;28;20308;-62
2022/06/26 01:47:24;;;;;;;1.40;1.17;;;26.80;92.80;;;;;;5066914;28;19925;-63
2022/06/26 01:49:51;;;;;;;1.33;1.00;;;26.80;92.40;;;;;;5049939;28;20049;-64
2022/06/26 01:52:19;;;;;;;0.30;0.30;;;26.80;92.30;;;;;;5049726;28;20476;-63
2022/06/26 01:54:48;;;;;;;1.08;0.82;;;26.80;92.20;;;;;;5047825;28;20064;-62
2022/06/26 01:57:16;;;;;;;0.60;0.60;;;26.70;92.10;;;;;;5047910;28;20440;-61
2022/06/26 01:59:46;;;;;;;0.30;0.30;;;26.70;92.10;;;;;;5071949;28;20084;-64
2022/06/26 02:02:17;;;;;;;0.50;0.50;;;26.80;92.30;;;;;;5047625;28;20045;-63
2022/06/26 02:04:44;;;;;;;0.38;0.38;;;26.70;92.10;;;;;;5047458;28;20045;-64
2022/06/26 02:07:12;;;;;;;1.85;0.75;;;26.80;92.20;;;;;;5067146;28;20538;-64
2022/06/26 02:15:29;;;;;;;0.60;0.60;;;26.80;92.00;;;;;;5020598;28;20052;-63
2022/06/26 02:17:58;;;;;;;0.30;0.30;;;26.70;92.00;;;;;;5068935;28;20044;-64
2022/06/26 02:20:25;;;;;;;0.55;0.55;;;26.70;92.00;;;;;;5066623;28;20056;-64
2022/06/26 02:22:53;;;;;;;1.23;0.93;;;26.70;92.10;;;;;;5065711;28;20053;-64
2022/06/26 02:25:20;;;;;;;0.93;0.85;;;26.70;92.10;;;;;;5052043;28;20045;-63
2022/06/26 02:27:53;;;;;;;0.20;0.20;;;26.70;92.10;;;;;;5056804;28;20507;-62
2022/06/26 02:30:22;;;;;;;0.45;0.45;;;26.70;92.20;;;;;;5053933;28;20055;-62
2022/06/26 02:32:49;;;;;;;0.77;0.77;;;26.70;92.20;;;;;;5069203;28;20045;-62
2022/06/26 02:35:16;;;;;;;;;;;26.70;92.20;;;;;;5051096;28;20083;-61
2022/06/26 02:37:44;;;;;;;0.40;0.40;;;26.70;92.30;;;;;;5048021;28;19925;-64
2022/06/26 02:40:11;;;;;;;1.38;0.75;;;26.70;92.40;;;;;;5049063;28;20045;-64
2022/06/26 02:42:39;;;;;;;0.30;0.30;;;26.70;92.50;;;;;;5049652;28;20056;-63
2022/06/26 02:45:07;;;;;;;0.70;0.70;;;26.70;92.70;;;;;;5049358;28;20052;-62
2022/06/26 02:47:34;;;;;;;0.22;0.22;;;26.60;92.40;;;;;;5052731;28;20120;-63
2022/06/26 02:50:05;;;;;;;0.43;0.43;;;26.70;92.60;;;;;;5058672;28;20063;-63
2022/06/26 02:52:32;;;;;;;1.75;0.95;;;26.60;92.50;;;;;;5046952;28;20051;-63
2022/06/26 02:55:01;;;;;;;0.47;0.47;;;26.60;92.60;;;;;;5059027;28;20128;-64
2022/06/26 02:57:29;;;;;;;0.20;0.20;;;26.60;92.60;;;;;;5046553;28;20404;-64
2022/06/26 02:59:57;;;;;;;0.80;0.70;;;26.60;92.70;;;;;;5057754;28;20045;-63
2022/06/26 03:02:25;;;;;;;0.20;0.20;;;26.60;92.70;;;;;;5050015;28;20059;-64
2022/06/26 03:05:01;;;;;;;1.25;0.77;;;26.60;92.70;;;;;;5050835;28;20052;-64
2022/06/26 03:07:28;;;;;;;0.30;0.30;;;26.60;92.80;;;;;;5049324;28;20408;-64
2022/06/26 03:09:59;;;;;;;0.40;0.40;;;26.60;92.80;;;;;;5047298;28;20075;-64
2022/06/26 03:12:27;;;;;;;0.30;0.30;;;26.60;93.00;;;;;;5074114;28;20048;-63
2022/06/26 03:14:54;;;;;;;0.20;0.20;;;26.60;92.90;;;;;;5057426;28;20507;-63
2022/06/26 03:17:21;;;;;;;0.40;0.40;;;26.60;93.10;;;;;;5050200;28;20059;-63
2022/06/26 03:19:49;;;;;;;0.22;0.22;;;26.60;93.10;;;;;;5049426;28;20528;-63
2022/06/26 03:22:17;;;;;;;0.30;0.30;;;26.60;93.00;;;;;;5047815;28;20059;-63
2022/06/26 03:24:45;;;;;;;3.33;1.73;;;26.60;92.80;;;;;;5073482;28;20124;-63
2022/06/26 03:27:12;;;;;;;0.55;0.55;;;26.60;92.70;;;;;;5045811;28;20060;-63
2022/06/26 03:29:40;;;;;;;0.30;0.30;;;26.60;92.60;;;;;;5062451;28;20037;-64
2022/06/26 03:32:08;;;;;;;0.30;0.30;;;26.60;92.70;;;;;;5068273;28;20048;-63
2022/06/26 03:34:55;;;;;;;0.40;0.40;;;26.60;92.70;;;;;;5052138;28;20044;-63
2022/06/26 03:37:24;;;;;;;0.35;0.35;;;26.60;92.60;;;;;;5051493;28;20056;-64
2022/06/26 03:39:52;;;;;;;0.90;0.63;;;26.60;92.60;;;;;;5049691;28;20059;-63
2022/06/26 03:42:19;;;;;;;0.60;0.60;;;26.60;92.60;;;;;;5054771;28;20041;-63
2022/06/26 03:44:47;;;;;;;0.55;0.55;;;26.60;92.50;;;;;;5044839;28;20063;-64
2022/06/26 03:47:17;;;;;;;0.20;0.20;;;26.60;92.50;;;;;;5061746;28;20052;-63
2022/06/26 03:49:54;;;;;;;0.25;0.25;;;26.60;92.50;;;;;;5046051;28;20371;-63
2022/06/26 03:52:24;;;;;;;0.47;0.47;;;26.60;92.50;;;;;;5056821;28;20075;-64
2022/06/26 03:54:58;;;;;;;0.20;0.20;;;26.60;92.40;;;;;;5052475;28;20063;-63
2022/06/26 03:57:25;;;;;;;0.50;0.50;;;26.60;92.30;;;;;;5055258;28;20061;-64
2022/06/26 03:59:56;;;;;;;0.47;0.47;;;26.70;92.20;;;;;;5057786;28;20590;-64
2022/06/26 04:02:42;;;;;;;0.30;0.30;;;26.70;92.20;;;;;;5051584;28;20246;-62
2022/06/26 04:05:13;;;;;;;0.52;0.52;;;26.70;92.20;;;;;;5054088;28;20500;-63
2022/06/26 04:07:41;;;;;;;1.45;1.20;;;26.80;92.20;;;;;;5050884;28;20064;-63
2022/06/26 04:10:17;;;;;;;0.70;0.50;;;26.70;92.10;;;;;;5061191;28;20056;-64
2022/06/26 04:12:45;;;;;;;6.00;0.40;;;26.80;92.10;;;;;;5057867;28;20045;-63
2022/06/26 04:15:12;;;;;;;0.60;0.60;;;26.80;92.10;;;;;;5050584;28;20053;-63
2022/06/26 04:17:41;;;;;;;0.40;0.40;;;26.80;92.10;;;;;;5046914;28;20053;-63
2022/06/26 04:20:12;;;;;;;0.20;0.20;;;26.80;92.00;;;;;;5048054;28;20048;-63
2022/06/26 04:22:41;;;;;;;0.52;0.52;;;26.80;92.00;;;;;;5038761;28;20435;-64
2022/06/26 04:25:12;;;;;;;0.52;0.50;;;26.80;92.00;;;;;;5066366;28;20052;-63
2022/06/26 04:27:39;;;;;;;0.47;0.47;;;26.80;92.00;;;;;;5055216;28;20399;-63
2022/06/26 04:30:07;;;;;;;0.30;0.30;;;26.80;92.00;;;;;;5046746;28;20063;-65
2022/06/26 04:32:35;;;;;;;0.20;0.20;;;26.80;92.00;;;;;;5073130;28;20059;-61
2022/06/26 04:35:09;;;;;;;0.45;0.45;;;26.80;92.00;;;;;;5059879;28;20056;-63
2022/06/26 04:37:37;;;;;;;0.20;0.20;;;26.80;92.00;;;;;;5034599;28;20061;-63
2022/06/26 04:40:09;;;;;;;0.30;0.30;;;26.80;92.00;;;;;;5063571;28;20049;-62
2022/06/26 04:42:38;;;;;;;0.40;0.40;;;26.90;92.00;;;;;;5055790;28;20535;-63
2022/06/26 04:45:06;;;;;;;0.20;0.20;;;26.80;91.90;;;;;;5057451;28;20048;-63
2022/06/26 04:47:34;;;;;;;0.35;0.35;;;26.90;91.90;;;;;;5060636;28;20045;-63
2022/06/26 04:50:10;;;;;;;0.30;0.30;;;26.90;91.90;;;;;;5055484;28;20060;-63
2022/06/26 04:52:37;;;;;;;;;;;26.90;92.00;;;;;;5045036;28;20405;-63
2022/06/26 04:55:05;;;;;;;0.98;0.73;;;26.90;92.00;;;;;;5058724;28;21390;-64
2022/06/26 04:57:37;;;;;;;0.60;0.60;;;26.80;92.00;;;;;;5057175;28;20060;-65
2022/06/26 05:00:11;;;;;;;0.40;0.40;;;26.80;92.00;;;;;;5044517;28;20048;-64
2022/06/26 05:02:44;;;;;;;0.22;0.22;;;26.80;92.10;;;;;;5047367;28;20063;-63
2022/06/26 05:05:24;;;;;;;0.40;0.40;;;26.80;92.00;;;;;;5060116;28;20056;-64
2022/06/26 05:07:56;;;;;;;0.30;0.30;;;26.80;92.10;;;;;;5056813;28;20048;-63
2022/06/26 05:10:24;;;;;;;0.52;0.43;;;26.80;92.10;;;;;;5055668;28;20056;-64
2022/06/26 05:12:53;;;;;;;0.52;0.52;;;26.80;92.10;;;;;;5061692;28;20587;-63
2022/06/26 05:15:37;;;;;;;0.20;0.20;;;26.80;92.10;;;;;;5048329;28;20500;-64
2022/06/26 05:18:08;;;;;;;0.50;0.50;;;26.70;92.00;;;;;;5085206;28;20049;-64
2022/06/26 05:20:36;;;;;;;0.20;0.20;;;26.70;92.00;;;;;;5047009;28;20026;-64
2022/06/26 05:23:07;;;;;;;0.20;0.20;;;26.70;91.90;;;;;;5052661;28;20048;-63
2022/06/26 05:25:41;;;;;;;0.30;0.30;;;26.70;92.00;;;;;;5057328;28;20056;-63
2022/06/26 05:28:10;;;;;;;1.13;0.63;;;26.70;92.00;;;;;;5052362;28;20101;-64
2022/06/26 05:30:39;;;;;;;0.20;0.20;;;26.70;92.00;;;;;;5049827;28;20063;-64
2022/06/26 05:33:09;;;;;;;0.22;0.22;;;26.70;92.00;;;;;;5062161;28;20052;-63
2022/06/26 05:35:37;;;;;;;;;;;26.70;92.10;;;;;;5064722;28;20479;-61
2022/06/26 05:38:04;;;;;;;0.43;0.43;;;26.70;92.20;;;;;;5062112;28;19927;-61
2022/06/26 05:40:31;;;;;;;2.17;1.27;;;26.70;92.30;;;;;;5051590;28;20045;-62
2022/06/26 05:42:59;;;;;;;0.20;0.20;;;26.70;92.40;;;;;;5047095;28;20049;-62
2022/06/26 05:45:27;;;;;;;0.60;0.60;;;26.70;92.50;;;;;;5059153;28;20052;-64
2022/06/26 05:48:25;;;;;;;0.30;0.30;;;26.70;92.50;;;;;;5049952;28;20456;-63
2022/06/26 05:51:23;;;;;;;0.50;0.50;;;26.70;92.60;;;;;;5060368;28;20056;-63
2022/06/26 05:54:17;;;;;;;0.75;0.65;;;26.70;92.80;;;;;;5049034;28;20056;-61
2022/06/26 05:57:16;;;;;;;0.20;0.20;;;26.70;93.00;;;;;;5059625;28;20404;-62
2022/06/26 06:00:15;;;;;;;0.25;0.25;;;26.70;93.00;;;;;;5049982;28;20520;-61
2022/06/26 06:02:47;;;;;;;0.70;0.57;;;26.60;92.20;;;;;;5051182;28;20047;-62
2022/06/26 06:05:19;;;;;;;0.47;0.47;;;26.30;92.20;;;;;;5053995;28;20538;-64
2022/06/26 06:07:48;;;;;;;0.20;0.20;;;26.40;92.40;;;;;;5070010;28;20467;-61
2022/06/26 06:10:18;;;;;;;0.20;0.20;;;26.50;91.90;;;;;;5051375;28;20049;-62
2022/06/26 06:12:46;;;;;;;0.20;0.20;;;26.50;91.80;;;;;;5074681;28;20072;-63
2022/06/26 06:15:14;;;;;;;0.38;0.38;;;26.60;91.80;;;;;;5063172;28;20048;-64
2022/06/26 06:17:45;;;;;;;0.30;0.30;;;26.60;91.80;;;;;;5049941;28;20061;-62
2022/06/26 06:20:19;;;;;;;0.30;0.30;;;26.60;91.80;;;;;;5065726;28;20056;-64
2022/06/26 06:22:53;;;;;;;3.40;1.75;;;26.70;91.80;;;;;;5075888;28;20538;-64
2022/06/26 06:25:23;;;;;;;0.30;0.30;;;26.60;91.60;;;;;;5055637;28;20406;-62
2022/06/26 06:27:52;;;;;;;0.98;0.52;;;26.60;91.60;;;;;;5075031;28;20048;-63
2022/06/26 06:30:25;;;;;;;0.20;0.20;;;26.60;91.60;;;;;;5056645;28;20416;-64
2022/06/26 06:32:54;;;;;;;2.22;1.00;;;26.60;91.60;;;;;;5028120;28;20053;-64
2022/06/26 06:35:31;;;;;;;0.75;0.75;;;26.60;91.50;;;;;;5045418;28;20049;-65
2022/06/26 06:37:58;;;;;;;;;;;26.60;91.50;;;;;;5045696;28;20056;-62
2022/06/26 06:40:25;;;;;;;1.80;1.00;;;26.60;91.50;;;;;;5038858;28;19924;-63
2022/06/26 06:42:57;;;;;;;0.20;0.20;;;26.50;91.40;;;;;;5057843;28;20044;-63
2022/06/26 06:45:51;;;;;;;0.40;0.40;;;26.50;91.40;;;;;;5049511;28;20502;-64
2022/06/26 06:48:24;;;;;;;0.20;0.20;;;26.50;91.30;;;;;;5063040;28;20075;-65
2022/06/26 06:51:11;;;;;;;0.20;0.20;;;26.50;91.20;;;;;;5061719;28;20059;-61
2022/06/26 06:53:41;;;;;;;1.17;0.85;;;26.50;91.10;;;;;;5071698;28;20055;-63
2022/06/26 06:56:08;;;;;;;0.38;0.38;;;26.50;91.00;;;;;;5030782;28;20060;-64
2022/06/26 06:58:37;;;;;;;0.20;0.20;;;26.60;91.00;;;;;;5034452;28;20571;-63
2022/06/26 07:01:07;;;;;;;0.30;0.30;;;26.60;91.00;;;;;;5042325;28;20052;-63
2022/06/26 07:03:35;;;;;;;0.20;0.20;;;26.60;91.00;;;;;;5046844;28;20048;-64
2022/06/26 07:06:02;;;;;;;0.40;0.40;;;26.60;91.00;;;;;;5043064;28;20473;-60
2022/06/26 07:08:32;;;;;;;0.52;0.52;;;26.60;91.00;;;;;;5046799;28;20049;-65
2022/06/26 07:11:00;;;;;;;0.20;0.20;;;26.40;90.50;;;;;;5043956;28;20436;-63
2022/06/26 07:13:27;;;;;;;;;;;25.20;91.60;;;;;;5048453;28;20060;-63
2022/06/26 07:15:54;;;;;;;0.38;0.38;;;25.50;91.90;;;;;;5055037;28;20264;-62
2022/06/26 07:18:24;;;;;;;0.63;0.63;;;25.20;92.10;;;;;;5060712;28;20102;-62
2022/06/26 07:20:54;;;;;;;0.40;0.40;;;25.00;92.40;;;;;;5056752;28;20063;-63
2022/06/26 07:23:22;;;;;;;0.32;0.32;;;25.60;92.10;;;;;;5063362;28;20211;-61
2022/06/26 07:26:05;;;;;;;0.63;0.63;;;25.70;92.00;;;;;;5065588;28;20044;-60
2022/06/26 07:28:37;;;;;;;0.45;0.45;;;25.70;91.90;;;;;;5062782;28;20407;-62
2022/06/26 07:31:07;;;;;;;0.65;0.65;;;25.10;92.40;;;;;;5065430;28;20048;-61
2022/06/26 07:36:21;;;;;;;0.25;0.25;;;25.00;92.50;;;;;;5054312;28;20052;-63
2022/06/26 07:38:49;;;;;;;0.57;0.57;;;25.00;92.40;;;;;;5057386;28;20056;-63
2022/06/26 07:41:16;;;;;;;1.17;0.70;;;25.20;92.90;;;;;;5052061;28;20067;-63
2022/06/26 07:43:44;;;;;;;0.40;0.40;;;25.50;92.90;;;;;;5060564;28;20578;-67
2022/06/26 07:46:11;;;;;;;3.25;2.40;;;25.60;92.40;;;;;;5055857;28;20051;-66
2022/06/26 07:48:39;;;;;;;5.68;2.70;;;25.80;94.30;;;;;;5047045;28;20048;-66
2022/06/26 07:51:07;;;;;;;2.15;1.50;;;26.00;94.60;;;;;;5072872;28;20543;-66
2022/06/26 07:53:36;;;;;;;3.42;2.17;;;26.10;94.40;;;;;;5056271;28;20429;-67
2022/06/26 07:56:05;;;;;;;2.33;1.83;;;26.20;94.20;;;;;;5053807;28;20045;-64
2022/06/26 07:58:32;;;;;;;4.63;2.70;;;26.30;94.00;;;;;;5046690;28;20048;-63
2022/06/26 08:01:00;;;;;;;2.05;1.45;;;26.30;93.80;;;;;;5052946;28;20076;-64
2022/06/26 08:03:27;;;;;;;1.98;1.30;;;26.40;93.50;;;;;;5060058;28;20051;-65
2022/06/26 08:05:54;;;;;;;2.75;1.95;;;26.40;93.00;;;;;;5049593;28;20049;-65
2022/06/26 08:08:22;;;;;;;1.30;1.20;;;26.30;93.40;;;;;;5058195;28;20055;-66
2022/06/26 08:10:50;;;;;;;;;;;26.30;93.00;;;;;;5057617;28;20048;-65
2022/06/26 08:13:17;;;;;;;0.50;0.50;;;26.40;92.80;;;;;;5065067;28;19925;-64
2022/06/26 08:15:44;;;;;;;0.65;0.65;;;26.30;92.80;;;;;;5056322;28;20433;-64
2022/06/26 08:18:12;;;;;;;1.88;1.75;;;26.40;92.60;;;;;;5052473;28;20530;-65
2022/06/26 08:20:39;;;;;;;26.63;3.63;;;26.40;92.50;;;;;;5048297;28;20408;-68
2022/06/26 08:23:07;;;;;;;6.45;1.50;;;26.40;92.40;;;;;;5048663;28;20040;-63
2022/06/26 08:25:34;;;;;;;1.13;1.02;;;26.50;92.90;;;;;;5048081;28;20037;-61
2022/06/26 08:28:02;;;;;;;2.67;1.08;;;26.40;93.00;;;;;;5047318;28;20045;-62
2022/06/26 08:30:29;;;;;;;;;;;26.40;92.90;;;;;;5074133;28;20048;-59
2022/06/26 08:32:58;;;;;;;1.25;0.68;;;26.60;92.80;;;;;;5077742;28;19920;-62
2022/06/26 08:35:27;;;;;;;0.70;0.70;;;26.60;92.70;;;;;;5048065;28;20063;-62
2022/06/26 08:37:58;;;;;;;2.92;1.15;;;26.60;92.90;;;;;;5061825;28;20504;-61
2022/06/26 08:40:25;;;;;;;0.30;0.30;;;26.50;92.50;;;;;;5064623;28;20048;-61
2022/06/26 08:42:53;;;;;;;2.78;0.88;;;26.50;92.50;;;;;;5055147;28;20036;-62
2022/06/26 08:45:22;;;;;;;0.95;0.40;;;26.50;92.50;;;;;;5049772;28;20053;-62
2022/06/26 08:47:52;;;;;;;0.60;0.60;;;26.50;92.60;;;;;;5049792;28;20504;-61
2022/06/26 08:50:21;;;;;;;0.60;0.60;;;26.50;92.20;;;;;;5055713;28;20503;-62
2022/06/26 08:52:51;;;;;;;0.30;0.30;;;26.40;92.10;;;;;;5026112;28;21465;-60
2022/06/26 08:55:20;;;;;;;0.43;0.43;;;26.50;91.90;;;;;;5032807;28;20418;-62
2022/06/26 08:57:48;;;;;;;0.65;0.65;;;26.50;91.90;;;;;;5035161;28;20048;-61
2022/06/26 09:00:16;;;;;;;0.57;0.57;;;26.50;92.00;;;;;;5037622;28;20766;-63
2022/06/26 09:02:46;;;;;;;0.45;0.45;;;26.50;92.10;;;;;;5055727;28;20369;-62
2022/06/26 09:05:13;;;;;;;3.13;1.65;;;26.50;92.20;;;;;;5065459;28;20393;-61
2022/06/26 09:07:52;;;;;;;0.40;0.40;;;26.50;92.20;;;;;;5057813;28;20426;-62
2022/06/26 09:10:20;;;;;;;0.30;0.30;;;26.50;92.20;;;;;;5050414;28;20428;-62
2022/06/26 09:12:58;;;;;;;0.52;0.52;;;26.50;92.30;;;;;;5069468;28;20043;-62
2022/06/26 09:15:25;;;;;;;;;;;26.60;92.30;;;;;;5068413;28;20586;-61
2022/06/26 09:17:56;;;;;;;0.32;0.32;;;26.60;92.90;;;;;;5058817;28;20339;-63
2022/06/26 09:20:24;;;;;;;0.35;0.35;;;26.60;93.10;;;;;;5063192;28;20088;-62
2022/06/26 09:22:53;;;;;;;0.30;0.30;;;26.60;93.40;;;;;;5054227;28;20079;-61
2022/06/26 09:25:32;;;;;;;0.35;0.35;;;26.60;93.70;;;;;;5054984;28;20056;-60
2022/06/26 09:28:26;;;;;;;0.20;0.20;;;26.70;94.00;;;;;;5069002;28;20068;-63
2022/06/26 09:30:58;;;;;;;0.32;0.32;;;26.60;94.20;;;;;;5048648;28;20056;-60
2022/06/26 09:33:31;;;;;;;0.57;0.52;;;26.60;94.50;;;;;;5061988;28;20063;-63
2022/06/26 09:35:59;;;;;;;4.45;2.00;;;26.60;94.70;;;;;;5050367;28;20040;-61
2022/06/26 09:38:30;;;;;;;0.82;0.80;;;26.70;94.80;;;;;;5051855;28;20574;-61
2022/06/26 09:41:05;;;;;;;0.25;0.25;;;26.60;95.30;;;;;;5062174;28;20044;-64
2022/06/26 09:43:35;;;;;;;0.30;0.30;;;26.70;95.80;;;;;;5063506;28;20348;-63
2022/06/26 09:46:08;;;;;;;19.02;2.95;;;26.70;96.00;;;;;;5057574;28;20484;-64
2022/06/26 09:48:37;;;;;;;1.70;0.77;;;26.70;96.40;;;;;;5055104;28;20313;-63
2022/06/26 09:51:08;;;;;;;0.40;0.40;;;26.70;96.10;;;;;;5069816;28;20051;-62
2022/06/26 09:53:37;;;;;;;0.85;0.85;;;26.70;96.00;;;;;;5071152;28;20428;-62
2022/06/26 09:56:05;;;;;;;0.45;0.45;;;26.70;96.00;;;;;;5053452;28;20530;-62
2022/06/26 09:58:33;;;;;;;0.70;0.70;;;26.70;96.10;;;;;;5059149;28;20041;-61
2022/06/26 10:06:39;;;;;;;1.98;1.17;;;26.80;96.80;;;;;;5060919;28;20044;-62
2022/06/26 10:09:08;;;;;;;0.35;0.35;;;26.80;96.70;;;;;;5055556;28;20052;-61
2022/06/26 10:11:40;;;;;;;0.82;0.80;;;26.70;96.60;;;;;;5055531;28;20093;-63
2022/06/26 10:14:17;;;;;;;4.95;1.55;;;26.80;96.90;;;;;;5052213;28;20080;-62
2022/06/26 10:16:47;;;;;;;;;;;26.70;97.20;;;;;;5055404;28;20048;-62
2022/06/26 10:19:27;;;;;;;3.72;0.63;;;26.70;97.40;;;;;;5056075;28;19935;-62
2022/06/26 10:21:55;;;;;;;0.77;0.77;;;26.70;97.80;;;;;;5048578;28;20045;-63
2022/06/26 10:24:23;;;;;;;1.27;1.05;;;26.70;98.00;;;;;;5055215;28;20139;-63
2022/06/26 10:26:54;;;;;;;;;;;26.80;98.50;;;;;;5053065;28;20040;-62
2022/06/26 10:29:35;;;;;;;2.63;1.20;;;26.80;98.30;;;;;;5053769;28;19924;-61
2022/06/26 10:32:04;;;;;;;1.60;0.90;;;26.80;98.10;;;;;;5058489;28;20374;-63
2022/06/26 10:34:32;;;;;;;4.38;2.10;;;26.80;98.30;;;;;;5050877;28;20477;-62
2022/06/26 10:37:03;;;;;;;;;;;26.80;98.30;;;;;;5059106;28;20052;-63
2022/06/26 10:39:42;;;;;;;0.50;0.50;;;26.80;98.30;;;;;;5055414;28;20304;-62
2022/06/26 10:45:04;;;;;;;1.80;1.40;;;26.90;98.60;;;;;;5051228;28;20052;-62
2022/06/26 10:47:43;;;;;;;0.40;0.40;;;26.80;98.30;;;;;;5061618;28;20041;-61
2022/06/26 10:50:27;;;;;;;1.70;1.00;;;26.90;98.30;;;;;;5054843;28;20052;-60
2022/06/26 10:53:16;;;;;;;7.80;2.35;;;26.80;98.30;;;;;;5058206;28;20048;-58
2022/06/26 10:55:56;;;;;;;0.40;0.40;;;26.90;98.30;;;;;;5062304;28;20071;-63
2022/06/26 10:58:31;;;;;;;1.38;1.00;;;26.90;99.00;;;;;;5052417;28;20060;-63
2022/06/26 11:01:01;;;;;;;3.40;2.78;;;26.90;98.80;;;;;;5064538;28;20045;-59
2022/06/26 11:03:30;;;;;;;19.27;2.50;;;26.90;98.80;;;;;;5047794;28;20484;-61
2022/06/26 11:06:07;;;;;;;2.58;1.52;;;26.90;99.40;;;;;;5056382;28;20052;-63
2022/06/26 11:08:42;;;;;;;2.45;2.10;;;26.90;99.90;;;;;;5053816;28;20115;-63
2022/06/26 11:11:14;;;;;;;5.90;2.88;;;27.00;99.90;;;;;;5058515;28;20036;-62
2022/06/26 11:14:00;;;;;;;15.35;6.70;;;27.00;99.90;;;;;;5040446;28;20053;-63
2022/06/26 11:16:29;;;;;;;1.95;1.75;;;27.00;99.90;;;;;;5063692;28;20048;-62
2022/06/26 11:18:58;;;;;;;3.10;1.98;;;27.00;99.90;;;;;;5054910;28;20059;-63
2022/06/26 11:21:29;;;;;;;1.25;1.02;;;27.00;99.90;;;;;;5061927;28;20052;-59
2022/06/26 11:23:57;;;;;;;4.60;2.88;;;27.00;99.90;;;;;;5065456;28;20152;-63
2022/06/26 11:26:25;;;;;;;2.97;1.70;;;27.00;99.90;;;;;;5052791;28;20116;-62
2022/06/26 11:28:58;;;;;;;4.40;2.55;;;27.00;99.90;;;;;;5060098;28;20048;-62
2022/06/26 11:31:29;;;;;;;2.75;1.55;;;27.00;99.90;;;;;;5060695;28;20051;-62
2022/06/26 11:34:11;;;;;;;2.70;1.67;;;27.00;99.90;;;;;;5062225;28;20123;-61
2022/06/26 11:37:08;;;;;;;0.68;0.47;;;27.00;99.40;;;;;;5057044;28;20497;-61
2022/06/26 11:39:39;;;;;;;14.27;2.45;;;26.90;96.70;;;;;;5053347;28;20060;-61
2022/06/26 11:42:18;;;;;;;0.98;0.85;;;26.90;97.30;;;;;;5061591;28;20041;-61
2022/06/26 11:44:47;;;;;;;22.02;3.08;;;26.90;94.70;;;;;;5056199;28;20041;-60
2022/06/26 11:47:14;;;;;;;0.70;0.70;;;26.90;93.50;;;;;;5055150;28;20048;-61
2022/06/26 11:49:42;;;;;;;;;;;26.80;92.70;;;;;;5055399;28;20053;-61
2022/06/26 11:52:09;;;;;;;1.30;0.80;;;26.70;92.30;;;;;;5056570;28;19924;-60
2022/06/26 11:54:37;;;;;;;1.75;0.95;;;26.70;92.00;;;;;;5054853;28;20082;-62
2022/06/26 11:57:09;;;;;;;0.47;0.40;;;26.70;92.10;;;;;;5062383;28;20428;-60
2022/06/26 11:59:43;;;;;;;31.65;2.25;;;26.70;90.60;;;;;;5047162;28;20431;-60
2022/06/26 12:02:25;;;;;;;0.35;0.35;;;26.70;91.80;;;;;;5046588;28;20056;-60
2022/06/26 12:04:55;;;;;;;5.63;0.88;;;26.60;91.20;;;;;;5046855;28;20041;-63
2022/06/26 12:07:23;;;;;;;1.02;0.88;;;26.60;91.40;;;;;;5047321;28;20049;-61
2022/06/26 12:09:51;;;;;;;;;;;26.70;90.90;;;;;;5060976;28;20053;-62
2022/06/26 12:12:19;;;;;;;0.50;0.50;;;26.70;90.80;;;;;;5054161;28;19924;-59
2022/06/26 12:14:51;;;;;;;0.60;0.60;;;26.60;90.40;;;;;;5057195;28;20071;-65
2022/06/26 12:17:23;;;;;;;0.30;0.30;;;26.60;90.70;;;;;;5046678;28;20477;-57
2022/06/26 12:19:51;;;;;;;0.20;0.20;;;26.60;90.50;;;;;;5059841;28;20048;-61
2022/06/26 12:22:32;;;;;;;0.20;0.20;;;26.70;90.70;;;;;;5046494;28;20049;-61
2022/06/26 12:25:00;;;;;;;1.20;0.65;;;26.70;90.90;;;;;;5061626;28;20052;-61
2022/06/26 12:27:39;;;;;;;0.95;0.80;;;26.70;90.60;;;;;;5050352;28;20049;-62
2022/06/26 12:30:30;;;;;;;0.20;0.20;;;26.70;90.60;;;;;;5047020;28;20037;-62
2022/06/26 12:32:59;;;;;;;0.45;0.45;;;26.70;90.40;;;;;;5076689;28;20048;-62
2022/06/26 12:35:27;;;;;;;0.55;0.55;;;26.70;90.70;;;;;;5059640;28;20516;-62
2022/06/26 12:37:55;;;;;;;0.30;0.30;;;26.70;90.90;;;;;;5061348;28;20136;-61
2022/06/26 12:40:22;;;;;;;;;;;26.70;90.90;;;;;;5046899;28;20071;-59
2022/06/26 12:42:50;;;;;;;6.10;1.00;;;26.70;90.90;;;;;;5045246;28;19932;-58
2022/06/26 12:45:17;;;;;;;;;;;26.70;90.90;;;;;;5060783;28;20044;-60
2022/06/26 12:47:45;;;;;;;0.40;0.40;;;26.70;90.90;;;;;;5048670;28;19995;-60
2022/06/26 12:50:15;;;;;;;0.88;0.82;;;26.70;90.70;;;;;;5045608;28;20052;-61
2022/06/26 12:52:43;;;;;;;0.30;0.30;;;26.70;90.50;;;;;;5046544;28;20404;-60
2022/06/26 12:55:11;;;;;;;0.30;0.30;;;26.70;90.40;;;;;;5047149;28;20431;-59
2022/06/26 12:57:38;;;;;;;0.20;0.20;;;26.70;90.60;;;;;;5046879;28;20065;-61
2022/06/26 13:00:08;;;;;;;1.08;0.52;;;26.70;90.60;;;;;;5045833;28;20064;-59
2022/06/26 13:02:38;;;;;;;0.30;0.30;;;26.70;90.80;;;;;;5046240;28;20550;-60
2022/06/26 13:05:06;;;;;;;0.30;0.30;;;26.70;90.60;;;;;;5047102;28;20041;-62
2022/06/26 13:07:33;;;;;;;0.40;0.40;;;26.80;90.70;;;;;;5048500;28;20060;-57
2022/06/26 13:10:02;;;;;;;0.30;0.30;;;26.80;90.50;;;;;;5047610;28;20045;-61
2022/06/26 13:12:29;;;;;;;0.38;0.38;;;26.80;90.70;;;;;;5053058;28;21540;-61
2022/06/26 13:14:57;;;;;;;0.50;0.50;;;26.70;90.40;;;;;;5059741;28;20424;-58
2022/06/26 13:17:24;;;;;;;0.75;0.73;;;26.70;90.30;;;;;;5048258;28;20053;-60
2022/06/26 13:19:51;;;;;;;1.10;0.40;;;26.70;90.00;;;;;;5062429;28;20072;-58
2022/06/26 13:22:19;;;;;;;0.43;0.43;;;26.80;90.30;;;;;;5061017;28;20128;-60
2022/06/26 13:24:46;;;;;;;2.67;1.13;;;26.80;90.00;;;;;;5061176;28;20045;-62